sensor_id;sensor_type;location;lat;lon;timestamp;pressure;altitude;pressure_sealevel;temperature;humidity
62038;BME280;47991;42.974;12.082;2023-03-21T00:01:01;97932.52;;;6.51;85.19
62038;BME280;47991;42.974;12.082;2023-03-21T00:03:36;97928.12;;;6.51;85.80
62038;BME280;47991;42.974;12.082;2023-03-21T00:06:10;97930.55;;;6.53;84.61
62038;BME280;47991;42.974;12.082;2023-03-21T00:08:40;97930.72;;;6.56;84.78
62038;BME280;47991;42.974;12.082;2023-03-21T00:11:08;97922.63;;;6.57;84.47
62038;BME280;47991;42.974;12.082;2023-03-21T00:13:35;97922.23;;;6.60;84.22
62038;BME280;47991;42.974;12.082;2023-03-21T00:16:11;97920.09;;;6.65;85.15
62038;BME280;47991;42.974;12.082;2023-03-21T00:18:47;97914.45;;;6.66;84.96
62038;BME280;47991;42.974;12.082;2023-03-21T00:21:16;97911.39;;;6.72;86.60
62038;BME280;47991;42.974;12.082;2023-03-21T00:23:43;97909.91;;;6.79;85.36
62038;BME280;47991;42.974;12.082;2023-03-21T00:26:15;97908.08;;;6.87;85.63
62038;BME280;47991;42.974;12.082;2023-03-21T00:28:42;97905.20;;;6.93;85.96
62038;BME280;47991;42.974;12.082;2023-03-21T00:31:13;97898.41;;;7.02;86.42
62038;BME280;47991;42.974;12.082;2023-03-21T00:33:42;97899.76;;;7.07;87.36
62038;BME280;47991;42.974;12.082;2023-03-21T00:36:10;97897.27;;;7.08;85.97
62038;BME280;47991;42.974;12.082;2023-03-21T00:38:37;97890.94;;;7.08;86.09
62038;BME280;47991;42.974;12.082;2023-03-21T00:41:08;97890.56;;;7.10;86.18
62038;BME280;47991;42.974;12.082;2023-03-21T00:43:35;97889.50;;;7.11;87.41
62038;BME280;47991;42.974;12.082;2023-03-21T00:46:01;97886.79;;;7.17;86.86
62038;BME280;47991;42.974;12.082;2023-03-21T00:48:30;97885.65;;;7.23;87.41
62038;BME280;47991;42.974;12.082;2023-03-21T00:50:58;97881.55;;;7.27;88.52
62038;BME280;47991;42.974;12.082;2023-03-21T00:53:28;97881.84;;;7.32;87.27
62038;BME280;47991;42.974;12.082;2023-03-21T00:56:01;97879.20;;;7.32;86.31
62038;BME280;47991;42.974;12.082;2023-03-21T00:58:32;97874.91;;;7.25;86.06
62038;BME280;47991;42.974;12.082;2023-03-21T01:00:58;97871.85;;;7.17;86.30
62038;BME280;47991;42.974;12.082;2023-03-21T01:03:31;97868.27;;;7.07;87.38
62038;BME280;47991;42.974;12.082;2023-03-21T01:05:59;97864.42;;;7.06;87.44
62038;BME280;47991;42.974;12.082;2023-03-21T01:08:34;97865.67;;;7.05;87.82
62038;BME280;47991;42.974;12.082;2023-03-21T01:11:11;97860.71;;;7.08;87.16
62038;BME280;47991;42.974;12.082;2023-03-21T01:13:45;97860.49;;;7.12;86.84
62038;BME280;47991;42.974;12.082;2023-03-21T01:16:12;97856.05;;;7.15;86.71
62038;BME280;47991;42.974;12.082;2023-03-21T01:18:41;97854.71;;;7.10;86.10
62038;BME280;47991;42.974;12.082;2023-03-21T01:21:10;97850.74;;;7.04;86.38
62038;BME280;47991;42.974;12.082;2023-03-21T01:23:39;97848.15;;;7.01;87.32
62038;BME280;47991;42.974;12.082;2023-03-21T01:26:07;97847.19;;;6.93;88.47
62038;BME280;47991;42.974;12.082;2023-03-21T01:28:41;97844.84;;;6.84;87.62
62038;BME280;47991;42.974;12.082;2023-03-21T01:31:10;97842.80;;;6.79;87.88
62038;BME280;47991;42.974;12.082;2023-03-21T01:33:40;97844.08;;;6.75;87.00
62038;BME280;47991;42.974;12.082;2023-03-21T01:36:08;97838.44;;;6.77;87.98
62038;BME280;47991;42.974;12.082;2023-03-21T01:38:41;97842.79;;;6.79;87.43
62038;BME280;47991;42.974;12.082;2023-03-21T01:41:23;97839.47;;;6.78;86.62
62038;BME280;47991;42.974;12.082;2023-03-21T01:43:50;97837.52;;;6.81;87.41
62038;BME280;47991;42.974;12.082;2023-03-21T01:46:31;97839.13;;;6.76;87.51
62038;BME280;47991;42.974;12.082;2023-03-21T01:49:26;97837.06;;;6.74;88.29
62038;BME280;47991;42.974;12.082;2023-03-21T01:52:10;97833.52;;;6.76;88.20
62038;BME280;47991;42.974;12.082;2023-03-21T01:54:39;97830.89;;;6.75;87.36
62038;BME280;47991;42.974;12.082;2023-03-21T01:57:11;97829.01;;;6.71;86.57
62038;BME280;47991;42.974;12.082;2023-03-21T01:59:49;97823.63;;;6.67;86.05
62038;BME280;47991;42.974;12.082;2023-03-21T02:02:29;97817.01;;;6.61;86.63
62038;BME280;47991;42.974;12.082;2023-03-21T02:05:07;97816.66;;;6.60;87.13
62038;BME280;47991;42.974;12.082;2023-03-21T02:07:35;97815.27;;;6.59;86.78
62038;BME280;47991;42.974;12.082;2023-03-21T02:10:12;97814.98;;;6.53;86.75
62038;BME280;47991;42.974;12.082;2023-03-21T02:12:41;97816.42;;;6.50;87.40
62038;BME280;47991;42.974;12.082;2023-03-21T02:15:09;97813.72;;;6.56;88.72
62038;BME280;47991;42.974;12.082;2023-03-21T02:40:06;97792.91;;;6.48;88.46
62038;BME280;47991;42.974;12.082;2023-03-21T02:45:35;97788.45;;;6.55;88.99
62038;BME280;47991;42.974;12.082;2023-03-21T02:48:15;97789.48;;;6.56;88.78
62038;BME280;47991;42.974;12.082;2023-03-21T02:50:51;97782.08;;;6.60;88.92
62038;BME280;47991;42.974;12.082;2023-03-21T02:53:24;97782.93;;;6.61;88.74
62038;BME280;47991;42.974;12.082;2023-03-21T02:55:58;97781.23;;;6.56;88.45
62038;BME280;47991;42.974;12.082;2023-03-21T02:58:27;97777.59;;;6.52;89.43
62038;BME280;47991;42.974;12.082;2023-03-21T03:00:56;97776.75;;;6.49;88.53
62038;BME280;47991;42.974;12.082;2023-03-21T03:03:28;97774.86;;;6.45;88.13
62038;BME280;47991;42.974;12.082;2023-03-21T03:05:58;97776.13;;;6.42;88.22
62038;BME280;47991;42.974;12.082;2023-03-21T03:14:07;97774.89;;;6.27;87.44
62038;BME280;47991;42.974;12.082;2023-03-21T03:16:47;97782.74;;;6.16;87.14
62038;BME280;47991;42.974;12.082;2023-03-21T03:19:27;97781.23;;;6.08;87.41
62038;BME280;47991;42.974;12.082;2023-03-21T03:22:19;97782.35;;;6.03;87.48
62038;BME280;47991;42.974;12.082;2023-03-21T03:25:07;97782.41;;;5.96;87.32
62038;BME280;47991;42.974;12.082;2023-03-21T03:27:40;97778.53;;;5.95;87.46
62038;BME280;47991;42.974;12.082;2023-03-21T03:30:12;97775.55;;;5.96;87.38
62038;BME280;47991;42.974;12.082;2023-03-21T03:32:58;97777.48;;;5.96;87.84
62038;BME280;47991;42.974;12.082;2023-03-21T03:35:28;97781.34;;;5.96;87.77
62038;BME280;47991;42.974;12.082;2023-03-21T03:37:57;97784.00;;;5.91;88.86
62038;BME280;47991;42.974;12.082;2023-03-21T03:40:39;97779.27;;;5.90;90.36
62038;BME280;47991;42.974;12.082;2023-03-21T03:43:25;97777.85;;;5.92;90.48
62038;BME280;47991;42.974;12.082;2023-03-21T03:46:00;97773.11;;;5.94;90.24
62038;BME280;47991;42.974;12.082;2023-03-21T03:48:36;97770.82;;;5.96;89.44
62038;BME280;47991;42.974;12.082;2023-03-21T03:51:36;97773.48;;;5.90;89.34
62038;BME280;47991;42.974;12.082;2023-03-21T03:54:44;97771.11;;;5.80;89.10
62038;BME280;47991;42.974;12.082;2023-03-21T03:57:16;97764.95;;;5.66;89.68
62038;BME280;47991;42.974;12.082;2023-03-21T03:59:45;97768.40;;;5.52;88.91
62038;BME280;47991;42.974;12.082;2023-03-21T04:02:30;97769.53;;;5.43;89.25
62038;BME280;47991;42.974;12.082;2023-03-21T04:05:00;97775.68;;;5.38;89.24
62038;BME280;47991;42.974;12.082;2023-03-21T04:07:29;97775.20;;;5.35;89.00
62038;BME280;47991;42.974;12.082;2023-03-21T04:10:01;97776.83;;;5.28;88.92
62038;BME280;47991;42.974;12.082;2023-03-21T04:12:32;97783.66;;;5.27;88.35
62038;BME280;47991;42.974;12.082;2023-03-21T04:15:17;97788.52;;;5.32;89.00
62038;BME280;47991;42.974;12.082;2023-03-21T04:17:48;97791.30;;;5.36;88.92
62038;BME280;47991;42.974;12.082;2023-03-21T04:20:18;97789.58;;;5.33;89.30
62038;BME280;47991;42.974;12.082;2023-03-21T04:22:46;97787.92;;;5.42;91.07
62038;BME280;47991;42.974;12.082;2023-03-21T04:25:18;97787.30;;;5.55;91.69
62038;BME280;47991;42.974;12.082;2023-03-21T04:27:45;97785.98;;;5.66;91.53
62038;BME280;47991;42.974;12.082;2023-03-21T04:30:34;97791.36;;;5.52;88.39
62038;BME280;47991;42.974;12.082;2023-03-21T04:33:11;97791.45;;;5.40;88.76
62038;BME280;47991;42.974;12.082;2023-03-21T04:35:40;97787.66;;;5.31;88.88
62038;BME280;47991;42.974;12.082;2023-03-21T04:38:07;97789.09;;;5.28;89.86
62038;BME280;47991;42.974;12.082;2023-03-21T04:40:38;97789.23;;;5.32;90.40
62038;BME280;47991;42.974;12.082;2023-03-21T04:43:08;97792.17;;;5.37;91.25
62038;BME280;47991;42.974;12.082;2023-03-21T04:45:39;97790.58;;;5.38;91.11
62038;BME280;47991;42.974;12.082;2023-03-21T04:48:07;97794.04;;;5.21;89.11
62038;BME280;47991;42.974;12.082;2023-03-21T04:50:38;97799.91;;;5.07;89.18
62038;BME280;47991;42.974;12.082;2023-03-21T04:53:04;97806.08;;;5.03;89.48
62038;BME280;47991;42.974;12.082;2023-03-21T04:55:30;97806.59;;;5.04;88.69
62038;BME280;47991;42.974;12.082;2023-03-21T04:58:02;97808.38;;;4.96;88.82
62038;BME280;47991;42.974;12.082;2023-03-21T05:00:33;97805.23;;;4.93;89.90
62038;BME280;47991;42.974;12.082;2023-03-21T05:03:08;97812.05;;;4.98;90.63
62038;BME280;47991;42.974;12.082;2023-03-21T05:05:36;97813.39;;;5.08;91.47
62038;BME280;47991;42.974;12.082;2023-03-21T05:08:05;97818.65;;;5.08;89.32
62038;BME280;47991;42.974;12.082;2023-03-21T05:10:32;97816.77;;;4.99;88.87
62038;BME280;47991;42.974;12.082;2023-03-21T05:12:59;97816.80;;;4.96;88.67
62038;BME280;47991;42.974;12.082;2023-03-21T05:15:29;97815.38;;;4.96;89.37
62038;BME280;47991;42.974;12.082;2023-03-21T05:17:55;97811.54;;;4.94;89.05
62038;BME280;47991;42.974;12.082;2023-03-21T05:20:24;97809.97;;;4.93;89.56
62038;BME280;47991;42.974;12.082;2023-03-21T05:22:54;97809.77;;;4.99;89.77
62038;BME280;47991;42.974;12.082;2023-03-21T05:25:20;97812.68;;;5.10;90.24
62038;BME280;47991;42.974;12.082;2023-03-21T05:28:10;97817.77;;;5.07;89.19
62038;BME280;47991;42.974;12.082;2023-03-21T05:30:37;97812.42;;;4.94;88.80
62038;BME280;47991;42.974;12.082;2023-03-21T05:33:05;97814.39;;;4.87;89.44
62038;BME280;47991;42.974;12.082;2023-03-21T05:35:31;97815.22;;;4.95;89.46
62038;BME280;47991;42.974;12.082;2023-03-21T05:37:59;97819.36;;;5.06;89.14
62038;BME280;47991;42.974;12.082;2023-03-21T05:40:28;97821.09;;;5.08;89.50
62038;BME280;47991;42.974;12.082;2023-03-21T05:42:56;97822.21;;;4.99;88.58
62038;BME280;47991;42.974;12.082;2023-03-21T05:45:25;97820.65;;;4.95;88.39
62038;BME280;47991;42.974;12.082;2023-03-21T05:47:54;97817.51;;;4.93;88.53
62038;BME280;47991;42.974;12.082;2023-03-21T05:50:28;97815.44;;;4.86;88.38
62038;BME280;47991;42.974;12.082;2023-03-21T05:53:19;97814.25;;;4.79;88.01
62038;BME280;47991;42.974;12.082;2023-03-21T05:55:47;97810.92;;;4.78;88.29
62038;BME280;47991;42.974;12.082;2023-03-21T05:58:20;97810.56;;;4.80;88.26
62038;BME280;47991;42.974;12.082;2023-03-21T06:00:49;97812.83;;;4.83;88.17
62038;BME280;47991;42.974;12.082;2023-03-21T06:03:22;97811.98;;;4.79;87.90
62038;BME280;47991;42.974;12.082;2023-03-21T06:06:14;97813.75;;;4.73;88.11
62038;BME280;47991;42.974;12.082;2023-03-21T06:08:50;97814.44;;;4.76;88.64
62038;BME280;47991;42.974;12.082;2023-03-21T06:11:25;97811.96;;;4.80;88.84
62038;BME280;47991;42.974;12.082;2023-03-21T06:14:09;97817.36;;;4.87;88.45
62038;BME280;47991;42.974;12.082;2023-03-21T06:16:37;97815.08;;;4.89;88.34
62038;BME280;47991;42.974;12.082;2023-03-21T06:19:04;97818.22;;;4.90;88.03
62038;BME280;47991;42.974;12.082;2023-03-21T06:21:49;97819.78;;;4.94;88.05
62038;BME280;47991;42.974;12.082;2023-03-21T06:24:16;97821.13;;;5.03;87.99
62038;BME280;47991;42.974;12.082;2023-03-21T06:26:43;97818.37;;;5.26;87.94
62038;BME280;47991;42.974;12.082;2023-03-21T06:29:11;97827.41;;;5.37;87.89
62038;BME280;47991;42.974;12.082;2023-03-21T06:31:37;97830.50;;;5.47;87.96
62038;BME280;47991;42.974;12.082;2023-03-21T06:34:06;97830.56;;;5.63;87.38
62038;BME280;47991;42.974;12.082;2023-03-21T06:36:35;97828.33;;;5.78;87.50
62038;BME280;47991;42.974;12.082;2023-03-21T06:39:02;97822.96;;;5.91;87.43
62038;BME280;47991;42.974;12.082;2023-03-21T06:41:38;97824.97;;;6.05;87.48
62038;BME280;47991;42.974;12.082;2023-03-21T06:44:08;97821.04;;;6.13;86.63
62038;BME280;47991;42.974;12.082;2023-03-21T06:46:46;97820.98;;;6.18;86.64
62038;BME280;47991;42.974;12.082;2023-03-21T06:49:16;97814.59;;;6.25;87.05
62038;BME280;47991;42.974;12.082;2023-03-21T06:51:45;97812.85;;;6.40;86.86
62038;BME280;47991;42.974;12.082;2023-03-21T06:54:16;97814.64;;;6.53;86.48
62038;BME280;47991;42.974;12.082;2023-03-21T06:57:10;97812.80;;;6.74;86.40
62038;BME280;47991;42.974;12.082;2023-03-21T06:59:40;97815.11;;;6.87;86.36
62038;BME280;47991;42.974;12.082;2023-03-21T07:02:22;97820.33;;;7.04;86.51
62038;BME280;47991;42.974;12.082;2023-03-21T07:05:10;97822.83;;;7.27;86.23
62038;BME280;47991;42.974;12.082;2023-03-21T07:07:38;97822.86;;;7.49;85.91
62038;BME280;47991;42.974;12.082;2023-03-21T07:10:05;97823.26;;;7.90;86.17
62038;BME280;47991;42.974;12.082;2023-03-21T07:12:43;97827.50;;;7.89;85.05
62038;BME280;47991;42.974;12.082;2023-03-21T07:15:22;97830.27;;;7.92;85.42
62038;BME280;47991;42.974;12.082;2023-03-21T07:17:51;97826.08;;;8.01;85.21
62038;BME280;47991;42.974;12.082;2023-03-21T07:20:17;97830.36;;;8.07;85.22
62038;BME280;47991;42.974;12.082;2023-03-21T07:22:46;97833.77;;;8.23;85.44
62038;BME280;47991;42.974;12.082;2023-03-21T07:25:15;97834.08;;;8.36;85.12
62038;BME280;47991;42.974;12.082;2023-03-21T07:27:45;97832.38;;;8.33;85.22
62038;BME280;47991;42.974;12.082;2023-03-21T07:30:14;97831.33;;;8.42;85.83
62038;BME280;47991;42.974;12.082;2023-03-21T07:32:42;97827.54;;;8.58;85.72
62038;BME280;47991;42.974;12.082;2023-03-21T07:35:12;97827.24;;;8.73;85.36
62038;BME280;47991;42.974;12.082;2023-03-21T07:37:40;97826.17;;;8.90;85.14
62038;BME280;47991;42.974;12.082;2023-03-21T07:40:10;97829.05;;;9.13;85.01
62038;BME280;47991;42.974;12.082;2023-03-21T07:42:39;97833.64;;;9.38;84.70
62038;BME280;47991;42.974;12.082;2023-03-21T07:45:09;97830.05;;;9.40;85.26
62038;BME280;47991;42.974;12.082;2023-03-21T07:47:35;97832.71;;;9.46;84.64
62038;BME280;47991;42.974;12.082;2023-03-21T07:50:02;97832.94;;;9.96;83.60
62038;BME280;47991;42.974;12.082;2023-03-21T07:52:29;97830.66;;;10.45;83.01
62038;BME280;47991;42.974;12.082;2023-03-21T07:54:57;97831.80;;;11.11;80.35
62038;BME280;47991;42.974;12.082;2023-03-21T07:57:26;97832.55;;;11.96;75.01
62038;BME280;47991;42.974;12.082;2023-03-21T07:59:54;97830.79;;;12.54;75.04
62038;BME280;47991;42.974;12.082;2023-03-21T08:02:20;97830.63;;;12.84;73.43
62038;BME280;47991;42.974;12.082;2023-03-21T08:04:46;97835.98;;;13.02;71.16
62038;BME280;47991;42.974;12.082;2023-03-21T08:07:16;97838.41;;;13.18;73.46
62038;BME280;47991;42.974;12.082;2023-03-21T08:09:43;97838.44;;;13.37;72.43
62038;BME280;47991;42.974;12.082;2023-03-21T08:12:16;97839.02;;;13.45;70.73
62038;BME280;47991;42.974;12.082;2023-03-21T08:14:42;97842.58;;;13.30;70.55
62038;BME280;47991;42.974;12.082;2023-03-21T08:17:11;97842.91;;;13.07;67.84
62038;BME280;47991;42.974;12.082;2023-03-21T08:19:39;97844.52;;;13.40;68.32
62038;BME280;47991;42.974;12.082;2023-03-21T08:22:07;97839.67;;;13.60;68.39
62038;BME280;47991;42.974;12.082;2023-03-21T08:24:38;97838.33;;;13.63;69.34
62038;BME280;47991;42.974;12.082;2023-03-21T08:27:07;97833.09;;;13.60;67.01
62038;BME280;47991;42.974;12.082;2023-03-21T08:29:34;97838.23;;;13.65;68.78
62038;BME280;47991;42.974;12.082;2023-03-21T08:32:05;97838.12;;;13.59;69.38
62038;BME280;47991;42.974;12.082;2023-03-21T08:34:35;97837.08;;;13.40;68.23
62038;BME280;47991;42.974;12.082;2023-03-21T08:37:05;97837.39;;;13.45;68.18
62038;BME280;47991;42.974;12.082;2023-03-21T08:39:32;97836.42;;;13.52;68.94
62038;BME280;47991;42.974;12.082;2023-03-21T08:42:02;97833.81;;;13.51;66.98
62038;BME280;47991;42.974;12.082;2023-03-21T08:44:37;97836.44;;;13.61;68.92
62038;BME280;47991;42.974;12.082;2023-03-21T08:47:06;97838.37;;;13.84;68.72
62038;BME280;47991;42.974;12.082;2023-03-21T08:49:38;97834.73;;;14.16;67.61
62038;BME280;47991;42.974;12.082;2023-03-21T08:52:06;97831.79;;;14.27;65.50
62038;BME280;47991;42.974;12.082;2023-03-21T08:54:43;97831.75;;;14.45;66.02
62038;BME280;47991;42.974;12.082;2023-03-21T08:57:10;97823.70;;;14.54;64.68
62038;BME280;47991;42.974;12.082;2023-03-21T08:59:36;97826.00;;;14.59;65.02
62038;BME280;47991;42.974;12.082;2023-03-21T09:02:05;97830.78;;;14.34;63.71
62038;BME280;47991;42.974;12.082;2023-03-21T09:04:32;97830.66;;;14.20;65.60
62038;BME280;47991;42.974;12.082;2023-03-21T09:07:01;97828.51;;;14.12;65.37
62038;BME280;47991;42.974;12.082;2023-03-21T09:09:27;97830.05;;;14.05;64.92
62038;BME280;47991;42.974;12.082;2023-03-21T09:11:55;97826.05;;;14.11;66.47
62038;BME280;47991;42.974;12.082;2023-03-21T09:14:21;97827.52;;;14.19;66.12
62038;BME280;47991;42.974;12.082;2023-03-21T09:16:48;97827.63;;;14.16;65.89
62038;BME280;47991;42.974;12.082;2023-03-21T09:19:14;97825.88;;;14.20;65.71
62038;BME280;47991;42.974;12.082;2023-03-21T09:21:40;97829.77;;;14.20;64.96
62038;BME280;47991;42.974;12.082;2023-03-21T09:24:07;97829.80;;;14.11;65.90
62038;BME280;47991;42.974;12.082;2023-03-21T09:26:33;97826.01;;;14.12;65.27
62038;BME280;47991;42.974;12.082;2023-03-21T09:28:59;97826.48;;;14.10;65.56
62038;BME280;47991;42.974;12.082;2023-03-21T09:31:26;97825.62;;;14.13;66.14
62038;BME280;47991;42.974;12.082;2023-03-21T09:33:55;97823.28;;;14.05;65.29
62038;BME280;47991;42.974;12.082;2023-03-21T09:36:25;97823.00;;;14.04;65.83
62038;BME280;47991;42.974;12.082;2023-03-21T09:38:52;97819.17;;;14.23;63.85
62038;BME280;47991;42.974;12.082;2023-03-21T09:41:31;97817.41;;;14.26;64.01
62038;BME280;47991;42.974;12.082;2023-03-21T09:44:24;97821.09;;;14.19;64.92
62038;BME280;47991;42.974;12.082;2023-03-21T09:47:09;97823.28;;;14.14;64.20
62038;BME280;47991;42.974;12.082;2023-03-21T09:49:44;97824.86;;;14.01;63.79
62038;BME280;47991;42.974;12.082;2023-03-21T09:52:21;97824.02;;;13.96;65.53
62038;BME280;47991;42.974;12.082;2023-03-21T09:54:51;97823.52;;;13.99;64.72
62038;BME280;47991;42.974;12.082;2023-03-21T09:59:53;97824.77;;;14.03;64.18
62038;BME280;47991;42.974;12.082;2023-03-21T10:05:02;97834.73;;;13.81;63.24
62038;BME280;47991;42.974;12.082;2023-03-21T10:07:39;97831.09;;;13.79;64.22
62038;BME280;47991;42.974;12.082;2023-03-21T10:10:18;97825.57;;;14.01;64.09
62038;BME280;47991;42.974;12.082;2023-03-21T10:12:46;97826.39;;;14.16;64.98
62038;BME280;47991;42.974;12.082;2023-03-21T10:15:19;97827.08;;;14.25;65.04
62038;BME280;47991;42.974;12.082;2023-03-21T10:17:54;97822.52;;;14.44;64.56
62038;BME280;47991;42.974;12.082;2023-03-21T10:20:35;97821.27;;;14.82;64.39
62038;BME280;47991;42.974;12.082;2023-03-21T10:23:10;97824.56;;;15.31;63.84
62038;BME280;47991;42.974;12.082;2023-03-21T10:25:44;97817.35;;;15.63;60.87
62038;BME280;47991;42.974;12.082;2023-03-21T10:28:19;97818.08;;;15.97;60.56
62038;BME280;47991;42.974;12.082;2023-03-21T10:33:17;97813.52;;;16.38;59.53
62038;BME280;47991;42.974;12.082;2023-03-21T10:35:50;97810.73;;;16.61;59.21
62038;BME280;47991;42.974;12.082;2023-03-21T10:38:24;97815.45;;;16.76;58.35
62038;BME280;47991;42.974;12.082;2023-03-21T10:40:55;97809.88;;;16.53;55.79
62038;BME280;47991;42.974;12.082;2023-03-21T10:45:55;97810.65;;;16.86;56.51
62038;BME280;47991;42.974;12.082;2023-03-21T10:48:24;97811.02;;;17.00;55.48
62038;BME280;47991;42.974;12.082;2023-03-21T10:50:58;97812.41;;;17.27;55.93
62038;BME280;47991;42.974;12.082;2023-03-21T10:54:04;97812.45;;;17.52;55.20
62038;BME280;47991;42.974;12.082;2023-03-21T10:56:43;97807.42;;;17.40;53.16
62038;BME280;47991;42.974;12.082;2023-03-21T10:59:17;97808.13;;;17.24;54.38
62038;BME280;47991;42.974;12.082;2023-03-21T11:01:49;97806.77;;;17.39;54.21
62038;BME280;47991;42.974;12.082;2023-03-21T11:04:24;97802.58;;;17.04;52.70
62038;BME280;47991;42.974;12.082;2023-03-21T11:06:53;97797.69;;;17.15;54.43
62038;BME280;47991;42.974;12.082;2023-03-21T11:09:41;97798.80;;;17.38;53.92
62038;BME280;47991;42.974;12.082;2023-03-21T11:12:27;97791.64;;;17.48;54.04
62038;BME280;47991;42.974;12.082;2023-03-21T11:14:59;97790.19;;;17.64;54.85
62038;BME280;47991;42.974;12.082;2023-03-21T11:17:44;97788.33;;;17.46;54.00
62038;BME280;47991;42.974;12.082;2023-03-21T11:20:16;97784.81;;;17.22;55.18
62038;BME280;47991;42.974;12.082;2023-03-21T11:22:46;97783.36;;;17.26;54.66
62038;BME280;47991;42.974;12.082;2023-03-21T11:28:14;97783.25;;;17.28;54.24
62038;BME280;47991;42.974;12.082;2023-03-21T11:30:54;97781.95;;;17.22;54.46
62038;BME280;47991;42.974;12.082;2023-03-21T11:33:25;97775.43;;;17.50;54.27
62038;BME280;47991;42.974;12.082;2023-03-21T11:35:59;97768.13;;;17.59;53.98
62038;BME280;47991;42.974;12.082;2023-03-21T11:38:35;97765.20;;;17.38;54.23
62038;BME280;47991;42.974;12.082;2023-03-21T11:41:06;97763.20;;;17.35;54.77
62038;BME280;47991;42.974;12.082;2023-03-21T11:43:37;97759.41;;;17.19;53.79
62038;BME280;47991;42.974;12.082;2023-03-21T11:46:11;97760.39;;;16.98;54.23
62038;BME280;47991;42.974;12.082;2023-03-21T11:48:44;97758.55;;;16.90;53.42
62038;BME280;47991;42.974;12.082;2023-03-21T11:51:40;97751.96;;;16.89;54.12
62038;BME280;47991;42.974;12.082;2023-03-21T11:54:13;97745.64;;;16.97;54.54
62038;BME280;47991;42.974;12.082;2023-03-21T11:56:45;97740.07;;;17.04;54.54
62038;BME280;47991;42.974;12.082;2023-03-21T11:59:19;97738.86;;;17.39;54.32
62038;BME280;47991;42.974;12.082;2023-03-21T12:07:00;97730.45;;;17.64;52.35
62038;BME280;47991;42.974;12.082;2023-03-21T12:12:49;97720.64;;;17.89;52.39
62038;BME280;47991;42.974;12.082;2023-03-21T12:15:26;97715.53;;;18.00;51.97
62038;BME280;47991;42.974;12.082;2023-03-21T12:21:19;97711.38;;;18.24;51.72
62038;BME280;47991;42.974;12.082;2023-03-21T12:35:36;97689.46;;;19.76;47.55
62038;BME280;47991;42.974;12.082;2023-03-21T12:38:17;97688.19;;;19.79;47.04
62038;BME280;47991;42.974;12.082;2023-03-21T12:43:48;97684.92;;;18.65;47.90
62038;BME280;47991;42.974;12.082;2023-03-21T12:46:28;97680.58;;;18.39;48.47
62038;BME280;47991;42.974;12.082;2023-03-21T12:51:40;97678.23;;;18.22;49.69
62038;BME280;47991;42.974;12.082;2023-03-21T12:54:24;97681.38;;;18.32;50.14
62038;BME280;47991;42.974;12.082;2023-03-21T12:56:58;97676.40;;;18.20;47.91
62038;BME280;47991;42.974;12.082;2023-03-21T12:59:39;97673.26;;;18.07;49.76
62038;BME280;47991;42.974;12.082;2023-03-21T13:02:42;97673.70;;;18.41;49.51
62038;BME280;47991;42.974;12.082;2023-03-21T13:05:37;97671.29;;;18.30;49.30
62038;BME280;47991;42.974;12.082;2023-03-21T13:08:29;97664.47;;;18.48;49.93
62038;BME280;47991;42.974;12.082;2023-03-21T13:11:02;97657.64;;;18.29;48.82
62038;BME280;47991;42.974;12.082;2023-03-21T13:22:04;97652.33;;;18.16;49.53
62038;BME280;47991;42.974;12.082;2023-03-21T13:24:47;97647.42;;;18.75;48.52
62038;BME280;47991;42.974;12.082;2023-03-21T13:27:30;97640.23;;;19.12;49.61
62038;BME280;47991;42.974;12.082;2023-03-21T13:30:00;97641.63;;;19.32;48.03
62038;BME280;47991;42.974;12.082;2023-03-21T13:32:37;97644.40;;;18.92;48.29
62038;BME280;47991;42.974;12.082;2023-03-21T13:37:48;97643.06;;;18.41;47.79
62038;BME280;47991;42.974;12.082;2023-03-21T13:40:46;97645.11;;;18.69;49.92
62038;BME280;47991;42.974;12.082;2023-03-21T13:46:12;97628.71;;;19.78;45.47
62038;BME280;47991;42.974;12.082;2023-03-21T13:49:00;97630.77;;;19.93;46.93
62038;BME280;47991;42.974;12.082;2023-03-21T13:56:27;97629.62;;;18.93;45.82
62038;BME280;47991;42.974;12.082;2023-03-21T13:59:00;97629.95;;;19.02;46.10
62038;BME280;47991;42.974;12.082;2023-03-21T14:01:37;97618.99;;;19.33;45.59
62038;BME280;47991;42.974;12.082;2023-03-21T14:04:16;97614.48;;;19.68;47.33
62038;BME280;47991;42.974;12.082;2023-03-21T14:06:55;97611.52;;;20.19;47.35
62038;BME280;47991;42.974;12.082;2023-03-21T14:11:54;97609.66;;;20.59;46.17
62038;BME280;47991;42.974;12.082;2023-03-21T14:14:23;97604.00;;;20.35;44.11
62038;BME280;47991;42.974;12.082;2023-03-21T14:16:54;97602.87;;;20.48;45.17
62038;BME280;47991;42.974;12.082;2023-03-21T14:19:28;97597.54;;;20.39;45.61
62038;BME280;47991;42.974;12.082;2023-03-21T14:21:54;97606.92;;;20.29;45.24
62038;BME280;47991;42.974;12.082;2023-03-21T14:24:21;97606.52;;;20.09;45.11
62038;BME280;47991;42.974;12.082;2023-03-21T14:26:50;97606.21;;;19.76;44.93
62038;BME280;47991;42.974;12.082;2023-03-21T14:29:25;97603.79;;;19.51;45.25
62038;BME280;47991;42.974;12.082;2023-03-21T14:31:56;97606.69;;;19.32;45.27
62038;BME280;47991;42.974;12.082;2023-03-21T14:34:30;97611.59;;;19.09;44.73
62038;BME280;47991;42.974;12.082;2023-03-21T14:36:57;97609.86;;;19.05;46.07
62038;BME280;47991;42.974;12.082;2023-03-21T14:39:31;97597.48;;;19.30;46.17
62038;BME280;47991;42.974;12.082;2023-03-21T14:42:10;97595.78;;;19.60;45.87
62038;BME280;47991;42.974;12.082;2023-03-21T14:44:42;97596.54;;;19.60;45.08
62038;BME280;47991;42.974;12.082;2023-03-21T14:47:19;97594.85;;;18.88;43.96
62038;BME280;47991;42.974;12.082;2023-03-21T14:49:50;97597.85;;;18.63;45.41
62038;BME280;47991;42.974;12.082;2023-03-21T14:52:25;97597.60;;;18.81;45.96
62038;BME280;47991;42.974;12.082;2023-03-21T14:54:56;97594.16;;;18.87;45.33
62038;BME280;47991;42.974;12.082;2023-03-21T14:57:30;97595.01;;;18.82;45.81
62038;BME280;47991;42.974;12.082;2023-03-21T15:00:05;97589.80;;;18.94;45.97